DKH1019 ZSPD-ZSLO
Flight info
| Callsign | DKH1019 |
|---|---|
| Flight time | 1h 28m |
| Altitude | 34100 |
| Route | NXD A599 OMEDM H2 QO H22 P379 |
| Aircraft | A320/M-SDE3FGHIRWY/LB1 |
Departure
| Time | 2026-05-04 04:29 |
|---|---|
| Airport | Shanghai Pudong International Airport (ZSPD) |
Arrival
| Time | 2026-05-04 05:57 |
|---|---|
| Airport | Liancheng Guanzhishan Airport (ZSLO) |
| Time | Latitude | Longitude | Altitude | Speed | Heading |
|---|---|---|---|---|---|
| 2026-05-04 04:12 | 31.16015 | 121.80485 | 23 ft | 0 kts | 222° |
| 2026-05-04 04:14 | 31.16018 | 121.80488 | 23 ft | 3 kts | 222° |
| 2026-05-04 04:14 | 31.16038 | 121.80509 | 25 ft | 4 kts | 222° |
| 2026-05-04 04:15 | 31.16058 | 121.80530 | 24 ft | 3 kts | 222° |
| 2026-05-04 04:15 | 31.16074 | 121.80546 | 25 ft | 4 kts | 208° |
| 2026-05-04 04:15 | 31.16099 | 121.80554 | 24 ft | 4 kts | 172° |
| 2026-05-04 04:15 | 31.16121 | 121.80548 | 23 ft | 4 kts | 162° |
| 2026-05-04 04:16 | 31.16135 | 121.80542 | 25 ft | 0 kts | 162° |
| 2026-05-04 04:17 | 31.16134 | 121.80543 | 25 ft | 1 kts | 162° |
| 2026-05-04 04:18 | 31.16115 | 121.80551 | 23 ft | 3 kts | 153° |
| 2026-05-04 04:18 | 31.16099 | 121.80596 | 24 ft | 8 kts | 82° |
| 2026-05-04 04:18 | 31.16114 | 121.80657 | 25 ft | 10 kts | 72° |
| 2026-05-04 04:18 | 31.16134 | 121.80726 | 23 ft | 8 kts | 71° |
| 2026-05-04 04:19 | 31.16151 | 121.80784 | 23 ft | 7 kts | 71° |
| 2026-05-04 04:19 | 31.16161 | 121.80834 | 23 ft | 6 kts | 87° |
| 2026-05-04 04:19 | 31.16133 | 121.80864 | 24 ft | 8 kts | 161° |
| 2026-05-04 04:19 | 31.16068 | 121.80890 | 23 ft | 12 kts | 161° |
| 2026-05-04 04:20 | 31.15976 | 121.80924 | 23 ft | 17 kts | 162° |
| 2026-05-04 04:20 | 31.15859 | 121.80967 | 22 ft | 20 kts | 162° |
| 2026-05-04 04:20 | 31.15716 | 121.81021 | 22 ft | 22 kts | 162° |
| 2026-05-04 04:20 | 31.15563 | 121.81078 | 22 ft | 24 kts | 162° |
| 2026-05-04 04:21 | 31.15403 | 121.81140 | 22 ft | 25 kts | 162° |
| 2026-05-04 04:21 | 31.15237 | 121.81203 | 23 ft | 26 kts | 162° |
| 2026-05-04 04:21 | 31.15065 | 121.81268 | 24 ft | 26 kts | 161° |
| 2026-05-04 04:21 | 31.14887 | 121.81335 | 23 ft | 27 kts | 162° |
| 2026-05-04 04:22 | 31.14710 | 121.81402 | 23 ft | 26 kts | 162° |
| 2026-05-04 04:22 | 31.14568 | 121.81455 | 22 ft | 14 kts | 161° |
| 2026-05-04 04:22 | 31.14519 | 121.81440 | 22 ft | 6 kts | 240° |
| 2026-05-04 04:22 | 31.14504 | 121.81383 | 23 ft | 12 kts | 252° |
| 2026-05-04 04:23 | 31.14465 | 121.81244 | 24 ft | 21 kts | 252° |
| 2026-05-04 04:23 | 31.14419 | 121.81078 | 23 ft | 22 kts | 252° |
| 2026-05-04 04:23 | 31.14371 | 121.80905 | 23 ft | 23 kts | 252° |
| 2026-05-04 04:23 | 31.14321 | 121.80725 | 24 ft | 24 kts | 252° |
| 2026-05-04 04:24 | 31.14270 | 121.80540 | 23 ft | 24 kts | 252° |
| 2026-05-04 04:24 | 31.14217 | 121.80349 | 23 ft | 25 kts | 252° |
| 2026-05-04 04:24 | 31.14163 | 121.80154 | 25 ft | 26 kts | 252° |
| 2026-05-04 04:24 | 31.14107 | 121.79955 | 23 ft | 26 kts | 252° |
| 2026-05-04 04:25 | 31.14053 | 121.79753 | 23 ft | 25 kts | 254° |
| 2026-05-04 04:25 | 31.14026 | 121.79632 | 23 ft | 7 kts | 239° |
| 2026-05-04 04:25 | 31.13972 | 121.79629 | 23 ft | 11 kts | 160° |
| 2026-05-04 04:25 | 31.13878 | 121.79667 | 23 ft | 18 kts | 161° |
| 2026-05-04 04:26 | 31.13744 | 121.79717 | 23 ft | 21 kts | 162° |
| 2026-05-04 04:26 | 31.13599 | 121.79770 | 23 ft | 23 kts | 162° |
| 2026-05-04 04:26 | 31.13446 | 121.79830 | 22 ft | 24 kts | 161° |
| 2026-05-04 04:26 | 31.13286 | 121.79892 | 22 ft | 25 kts | 161° |
| 2026-05-04 04:27 | 31.13116 | 121.79954 | 22 ft | 26 kts | 162° |
| 2026-05-04 04:27 | 31.12941 | 121.80019 | 22 ft | 27 kts | 163° |
| 2026-05-04 04:27 | 31.12791 | 121.80074 | 23 ft | 12 kts | 164° |
| 2026-05-04 04:27 | 31.12748 | 121.80045 | 23 ft | 7 kts | 251° |
| 2026-05-04 04:28 | 31.12736 | 121.79995 | 23 ft | 9 kts | 254° |
| 2026-05-04 04:28 | 31.12717 | 121.79916 | 23 ft | 13 kts | 255° |
| 2026-05-04 04:28 | 31.12769 | 121.79867 | 22 ft | 13 kts | 343° |
| 2026-05-04 04:28 | 31.13052 | 121.79757 | 23 ft | 79 kts | 342° |
| 2026-05-04 04:29 | 31.13769 | 121.79488 | 22 ft | 135 kts | 342° |
| 2026-05-04 04:29 | 31.14808 | 121.79097 | 115 ft | 170 kts | 341° |
| 2026-05-04 04:29 | 31.15944 | 121.78668 | 818 ft | 173 kts | 340° |
| 2026-05-04 04:29 | 31.17093 | 121.78222 | 1631 ft | 174 kts | 337° |
| 2026-05-04 04:30 | 31.18232 | 121.77765 | 2390 ft | 173 kts | 337° |
| 2026-05-04 04:30 | 31.19383 | 121.77295 | 2949 ft | 183 kts | 337° |
| 2026-05-04 04:30 | 31.20652 | 121.76769 | 3322 ft | 205 kts | 337° |
| 2026-05-04 04:30 | 31.22058 | 121.76191 | 3703 ft | 225 kts | 338° |
| 2026-05-04 04:31 | 31.23609 | 121.75554 | 4133 ft | 247 kts | 338° |
| 2026-05-04 04:31 | 31.25261 | 121.74878 | 4873 ft | 254 kts | 338° |
| 2026-05-04 04:31 | 31.26938 | 121.74198 | 5786 ft | 255 kts | 338° |
| 2026-05-04 04:31 | 31.28617 | 121.73518 | 6716 ft | 255 kts | 338° |
| 2026-05-04 04:32 | 31.30304 | 121.72836 | 7517 ft | 259 kts | 338° |
| 2026-05-04 04:32 | 31.31970 | 121.72007 | 8261 ft | 262 kts | 325° |
| 2026-05-04 04:32 | 31.33284 | 121.70535 | 8987 ft | 265 kts | 303° |
| 2026-05-04 04:32 | 31.34004 | 121.68543 | 9737 ft | 270 kts | 281° |
| 2026-05-04 04:33 | 31.33994 | 121.66330 | 10408 ft | 279 kts | 262° |
| 2026-05-04 04:33 | 31.33623 | 121.64009 | 10647 ft | 302 kts | 261° |
| 2026-05-04 04:33 | 31.33210 | 121.61517 | 10958 ft | 320 kts | 260° |
| 2026-05-04 04:33 | 31.32777 | 121.58942 | 11590 ft | 325 kts | 260° |
| 2026-05-04 04:34 | 31.32340 | 121.56337 | 11863 ft | 327 kts | 260° |
| 2026-05-04 04:34 | 31.31904 | 121.53731 | 11930 ft | 326 kts | 260° |
| 2026-05-04 04:34 | 31.31472 | 121.51133 | 11931 ft | 325 kts | 260° |
| 2026-05-04 04:34 | 31.31042 | 121.48536 | 11933 ft | 325 kts | 260° |
| 2026-05-04 04:35 | 31.30616 | 121.45943 | 11934 ft | 325 kts | 260° |
| 2026-05-04 04:35 | 31.30188 | 121.43351 | 11936 ft | 325 kts | 260° |
| 2026-05-04 04:35 | 31.29759 | 121.40756 | 11995 ft | 327 kts | 260° |
| 2026-05-04 04:35 | 31.29326 | 121.38138 | 12725 ft | 329 kts | 260° |
| 2026-05-04 04:36 | 31.28783 | 121.35536 | 13487 ft | 332 kts | 252° |
| 2026-05-04 04:36 | 31.27754 | 121.33111 | 14169 ft | 337 kts | 239° |
| 2026-05-04 04:36 | 31.26313 | 121.31087 | 14783 ft | 343 kts | 226° |
| 2026-05-04 04:36 | 31.24479 | 121.29282 | 15449 ft | 346 kts | 223° |
| 2026-05-04 04:37 | 31.18864 | 121.23912 | 17417 ft | 350 kts | 223° |
| 2026-05-04 04:37 | 31.17004 | 121.22129 | 18038 ft | 351 kts | 223° |
| 2026-05-04 04:38 | 31.15087 | 121.20293 | 18656 ft | 353 kts | 223° |
| 2026-05-04 04:38 | 31.13184 | 121.18473 | 19195 ft | 354 kts | 223° |
| 2026-05-04 04:38 | 31.11272 | 121.16649 | 19725 ft | 356 kts | 223° |
| 2026-05-04 04:38 | 31.09392 | 121.14829 | 20251 ft | 355 kts | 226° |
| 2026-05-04 04:39 | 31.07755 | 121.12690 | 20755 ft | 353 kts | 237° |
| 2026-05-04 04:39 | 31.06545 | 121.10213 | 21254 ft | 352 kts | 248° |
| 2026-05-04 04:39 | 31.05772 | 121.07507 | 21747 ft | 353 kts | 254° |
| 2026-05-04 04:39 | 31.05102 | 121.04750 | 22249 ft | 354 kts | 254° |
| 2026-05-04 04:40 | 31.04421 | 121.01983 | 22730 ft | 356 kts | 254° |
| 2026-05-04 04:40 | 31.03732 | 120.99207 | 23209 ft | 357 kts | 253° |
| 2026-05-04 04:40 | 31.03038 | 120.96419 | 23674 ft | 359 kts | 253° |
| 2026-05-04 04:40 | 31.02341 | 120.93623 | 24057 ft | 360 kts | 253° |
| 2026-05-04 04:41 | 31.01642 | 120.90814 | 24441 ft | 361 kts | 253° |
| 2026-05-04 04:41 | 31.00943 | 120.87993 | 24826 ft | 363 kts | 253° |
| 2026-05-04 04:41 | 31.00240 | 120.85167 | 25207 ft | 364 kts | 253° |
| 2026-05-04 04:41 | 30.99533 | 120.82331 | 25567 ft | 365 kts | 253° |
| 2026-05-04 04:42 | 30.98823 | 120.79490 | 25939 ft | 366 kts | 253° |
| 2026-05-04 04:42 | 30.98109 | 120.76636 | 26304 ft | 367 kts | 253° |
| 2026-05-04 04:42 | 30.97395 | 120.73777 | 26663 ft | 369 kts | 253° |
| 2026-05-04 04:42 | 30.96676 | 120.70906 | 27020 ft | 370 kts | 253° |
| 2026-05-04 04:43 | 30.95956 | 120.68023 | 27376 ft | 371 kts | 253° |
| 2026-05-04 04:43 | 30.95233 | 120.65128 | 27729 ft | 373 kts | 253° |
| 2026-05-04 04:43 | 30.94509 | 120.62227 | 28079 ft | 374 kts | 253° |
| 2026-05-04 04:43 | 30.93780 | 120.59309 | 28423 ft | 376 kts | 253° |
| 2026-05-04 04:44 | 30.93048 | 120.56386 | 28766 ft | 377 kts | 253° |
| 2026-05-04 04:44 | 30.92309 | 120.53448 | 29085 ft | 379 kts | 253° |
| 2026-05-04 04:44 | 30.91565 | 120.50499 | 29410 ft | 380 kts | 253° |
| 2026-05-04 04:44 | 30.90787 | 120.47550 | 29706 ft | 382 kts | 249° |
| 2026-05-04 04:45 | 30.89601 | 120.44780 | 29996 ft | 385 kts | 239° |
| 2026-05-04 04:45 | 30.87922 | 120.42334 | 30192 ft | 390 kts | 229° |
| 2026-05-04 04:45 | 30.85827 | 120.40358 | 30238 ft | 385 kts | 218° |
| 2026-05-04 04:47 | 30.71638 | 120.30588 | 30239 ft | 411 kts | 216° |
| 2026-05-04 04:47 | 30.67546 | 120.27791 | 30238 ft | 411 kts | 216° |
| 2026-05-04 04:48 | 30.62616 | 120.24427 | 30232 ft | 411 kts | 216° |
| 2026-05-04 04:49 | 30.50312 | 120.16022 | 30235 ft | 410 kts | 216° |
| 2026-05-04 04:49 | 30.45389 | 120.12664 | 30234 ft | 410 kts | 216° |
| 2026-05-04 04:50 | 30.40462 | 120.09310 | 30235 ft | 411 kts | 216° |
| 2026-05-04 04:50 | 30.35540 | 120.05962 | 30234 ft | 411 kts | 216° |
| 2026-05-04 04:51 | 30.30611 | 120.02613 | 30234 ft | 411 kts | 216° |
| 2026-05-04 04:51 | 30.25675 | 119.99264 | 30215 ft | 412 kts | 216° |
| 2026-05-04 04:52 | 30.20713 | 119.95900 | 30217 ft | 415 kts | 216° |
| 2026-05-04 04:52 | 30.15725 | 119.92526 | 30213 ft | 416 kts | 216° |
| 2026-05-04 04:53 | 30.10720 | 119.89148 | 30219 ft | 417 kts | 216° |
| 2026-05-04 04:53 | 30.06704 | 119.86442 | 30218 ft | 417 kts | 216° |
| 2026-05-04 04:54 | 30.01695 | 119.83060 | 30226 ft | 417 kts | 216° |
| 2026-05-04 04:54 | 29.96684 | 119.79682 | 30221 ft | 417 kts | 216° |
| 2026-05-04 04:55 | 29.91676 | 119.76305 | 30226 ft | 417 kts | 216° |
| 2026-05-04 04:55 | 29.86670 | 119.72935 | 30241 ft | 416 kts | 216° |
| 2026-05-04 04:56 | 29.81665 | 119.69571 | 30242 ft | 416 kts | 216° |
| 2026-05-04 04:56 | 29.76756 | 119.66083 | 30239 ft | 411 kts | 223° |
| 2026-05-04 04:57 | 29.72801 | 119.61447 | 30240 ft | 405 kts | 232° |
| 2026-05-04 04:57 | 29.69059 | 119.56603 | 30240 ft | 405 kts | 232° |
| 2026-05-04 04:58 | 29.65311 | 119.51762 | 30226 ft | 405 kts | 231° |
| 2026-05-04 04:58 | 29.61557 | 119.46930 | 30228 ft | 405 kts | 231° |
| 2026-05-04 04:59 | 29.57786 | 119.42132 | 30233 ft | 405 kts | 231° |
| 2026-05-04 04:59 | 29.54013 | 119.37339 | 30234 ft | 405 kts | 232° |
| 2026-05-04 05:00 | 29.50238 | 119.32535 | 30234 ft | 405 kts | 232° |
| 2026-05-04 05:01 | 29.44573 | 119.25321 | 30237 ft | 406 kts | 232° |
| 2026-05-04 05:01 | 29.40783 | 119.20519 | 30237 ft | 406 kts | 232° |
| 2026-05-04 05:02 | 29.36997 | 119.15724 | 30236 ft | 405 kts | 232° |
| 2026-05-04 05:02 | 29.33248 | 119.10969 | 30240 ft | 404 kts | 232° |
| 2026-05-04 05:03 | 29.29472 | 119.06195 | 30240 ft | 404 kts | 232° |
| 2026-05-04 05:04 | 29.21894 | 118.96652 | 30241 ft | 405 kts | 232° |
| 2026-05-04 05:04 | 29.18108 | 118.91877 | 30240 ft | 405 kts | 232° |
| 2026-05-04 05:06 | 29.02915 | 118.72811 | 30229 ft | 405 kts | 231° |
| 2026-05-04 05:07 | 28.99110 | 118.68069 | 30227 ft | 405 kts | 231° |
| 2026-05-04 05:07 | 28.95303 | 118.63318 | 30223 ft | 405 kts | 231° |
| 2026-05-04 05:09 | 28.78148 | 118.41991 | 30218 ft | 405 kts | 231° |
| 2026-05-04 05:10 | 28.74336 | 118.37253 | 30217 ft | 406 kts | 231° |
| 2026-05-04 05:10 | 28.70513 | 118.32526 | 30212 ft | 406 kts | 231° |
| 2026-05-04 05:11 | 28.66685 | 118.27795 | 30211 ft | 406 kts | 231° |
| 2026-05-04 05:11 | 28.62855 | 118.23062 | 30211 ft | 407 kts | 231° |
| 2026-05-04 05:12 | 28.59016 | 118.18326 | 30207 ft | 407 kts | 231° |
| 2026-05-04 05:12 | 28.55171 | 118.13591 | 30206 ft | 408 kts | 231° |
| 2026-05-04 05:13 | 28.51323 | 118.08855 | 30208 ft | 408 kts | 231° |
| 2026-05-04 05:13 | 28.49394 | 118.06485 | 30322 ft | 410 kts | 232° |
| 2026-05-04 05:13 | 28.47442 | 118.04085 | 30232 ft | 414 kts | 231° |
| 2026-05-04 05:14 | 28.43523 | 117.99277 | 30207 ft | 415 kts | 231° |
| 2026-05-04 05:14 | 28.39574 | 117.94466 | 30196 ft | 417 kts | 231° |
| 2026-05-04 05:15 | 28.35536 | 117.89707 | 30200 ft | 419 kts | 230° |
| 2026-05-04 05:15 | 28.31476 | 117.84964 | 30207 ft | 419 kts | 230° |
| 2026-05-04 05:16 | 28.27425 | 117.80208 | 30208 ft | 419 kts | 230° |
| 2026-05-04 05:16 | 28.23391 | 117.75450 | 30204 ft | 419 kts | 231° |
| 2026-05-04 05:17 | 28.19355 | 117.70691 | 30205 ft | 418 kts | 231° |
| 2026-05-04 05:17 | 28.15318 | 117.65942 | 30205 ft | 418 kts | 230° |
| 2026-05-04 05:18 | 28.11278 | 117.61201 | 30199 ft | 418 kts | 230° |
| 2026-05-04 05:18 | 28.09019 | 117.59088 | 30207 ft | 426 kts | 219° |
| 2026-05-04 05:18 | 28.06347 | 117.57554 | 30208 ft | 437 kts | 207° |
| 2026-05-04 05:19 | 28.03354 | 117.56729 | 30214 ft | 451 kts | 194° |
| 2026-05-04 05:19 | 28.00168 | 117.56724 | 30205 ft | 467 kts | 181° |
| 2026-05-04 05:19 | 27.93788 | 117.58429 | 30205 ft | 476 kts | 174° |
| 2026-05-04 05:20 | 27.87374 | 117.60308 | 30205 ft | 476 kts | 174° |
| 2026-05-04 05:20 | 27.83751 | 117.61363 | 30215 ft | 477 kts | 174° |
| 2026-05-04 05:21 | 27.77339 | 117.63235 | 30218 ft | 476 kts | 175° |
| 2026-05-04 05:21 | 27.70929 | 117.65059 | 30220 ft | 475 kts | 175° |
| 2026-05-04 05:22 | 27.64524 | 117.66890 | 30226 ft | 474 kts | 175° |
| 2026-05-04 05:22 | 27.58089 | 117.68730 | 30232 ft | 473 kts | 175° |
| 2026-05-04 05:23 | 27.51716 | 117.70563 | 30228 ft | 472 kts | 175° |
| 2026-05-04 05:23 | 27.45357 | 117.72395 | 30229 ft | 472 kts | 175° |
| 2026-05-04 05:24 | 27.39013 | 117.74231 | 30223 ft | 471 kts | 175° |
| 2026-05-04 05:24 | 27.32666 | 117.76069 | 30216 ft | 472 kts | 175° |
| 2026-05-04 05:25 | 27.26306 | 117.77904 | 30211 ft | 472 kts | 175° |
| 2026-05-04 05:25 | 27.19943 | 117.79721 | 30210 ft | 473 kts | 175° |
| 2026-05-04 05:26 | 27.13564 | 117.81536 | 30208 ft | 473 kts | 175° |
| 2026-05-04 05:26 | 27.07227 | 117.83354 | 30204 ft | 473 kts | 175° |
| 2026-05-04 05:28 | 26.81687 | 117.90639 | 30208 ft | 474 kts | 175° |
| 2026-05-04 05:29 | 26.75300 | 117.92459 | 30206 ft | 473 kts | 175° |
| 2026-05-04 05:29 | 26.68921 | 117.94276 | 30200 ft | 473 kts | 175° |
| 2026-05-04 05:31 | 26.48648 | 117.90448 | 30204 ft | 410 kts | 226° |
| 2026-05-04 05:31 | 26.46628 | 117.88238 | 30205 ft | 405 kts | 233° |
| 2026-05-04 05:32 | 26.43629 | 117.84250 | 30199 ft | 404 kts | 234° |
| 2026-05-04 05:33 | 26.38192 | 117.77044 | 30202 ft | 405 kts | 234° |
| 2026-05-04 05:33 | 26.36380 | 117.74634 | 30080 ft | 406 kts | 234° |
| 2026-05-04 05:33 | 26.34567 | 117.72218 | 29804 ft | 407 kts | 234° |
| 2026-05-04 05:33 | 26.32755 | 117.69807 | 29071 ft | 405 kts | 234° |
| 2026-05-04 05:34 | 26.30934 | 117.67383 | 27908 ft | 410 kts | 234° |
| 2026-05-04 05:34 | 26.29096 | 117.64928 | 26683 ft | 416 kts | 234° |
| 2026-05-04 05:34 | 26.27233 | 117.62441 | 25493 ft | 421 kts | 234° |
| 2026-05-04 05:34 | 26.25341 | 117.59920 | 24281 ft | 427 kts | 234° |
| 2026-05-04 05:35 | 26.23430 | 117.57385 | 23386 ft | 425 kts | 234° |
| 2026-05-04 05:35 | 26.21534 | 117.54879 | 22531 ft | 421 kts | 234° |
| 2026-05-04 05:35 | 26.19656 | 117.52403 | 21716 ft | 416 kts | 234° |
| 2026-05-04 05:35 | 26.17804 | 117.49958 | 20961 ft | 410 kts | 234° |
| 2026-05-04 05:36 | 26.15977 | 117.47541 | 20245 ft | 406 kts | 233° |
| 2026-05-04 05:36 | 26.14171 | 117.45150 | 19553 ft | 402 kts | 233° |
| 2026-05-04 05:36 | 26.12383 | 117.42781 | 18872 ft | 398 kts | 233° |
| 2026-05-04 05:36 | 26.10613 | 117.40437 | 18178 ft | 394 kts | 233° |
| 2026-05-04 05:37 | 26.08859 | 117.38115 | 17405 ft | 391 kts | 233° |
| 2026-05-04 05:37 | 26.07117 | 117.35811 | 16656 ft | 388 kts | 233° |
| 2026-05-04 05:37 | 26.05385 | 117.33522 | 15933 ft | 386 kts | 233° |
| 2026-05-04 05:38 | 26.01937 | 117.28982 | 14507 ft | 382 kts | 232° |
| 2026-05-04 05:38 | 26.00228 | 117.26730 | 13813 ft | 380 kts | 233° |
| 2026-05-04 05:38 | 25.98581 | 117.24444 | 13039 ft | 378 kts | 235° |
| 2026-05-04 05:38 | 25.97018 | 117.22116 | 12307 ft | 375 kts | 236° |
| 2026-05-04 05:39 | 25.95501 | 117.19768 | 11594 ft | 373 kts | 237° |
| 2026-05-04 05:39 | 25.92518 | 117.15102 | 10160 ft | 369 kts | 236° |
| 2026-05-04 05:39 | 25.91035 | 117.12806 | 9767 ft | 359 kts | 236° |
| 2026-05-04 05:40 | 25.88230 | 117.08536 | 9492 ft | 326 kts | 235° |
| 2026-05-04 05:40 | 25.86937 | 117.06582 | 9365 ft | 312 kts | 235° |
| 2026-05-04 05:40 | 25.85681 | 117.04682 | 9221 ft | 299 kts | 236° |
| 2026-05-04 05:41 | 25.84486 | 117.02865 | 9181 ft | 284 kts | 236° |
| 2026-05-04 05:41 | 25.83349 | 117.01137 | 9187 ft | 273 kts | 236° |
| 2026-05-04 05:41 | 25.82230 | 116.99436 | 9196 ft | 271 kts | 236° |
| 2026-05-04 05:41 | 25.81151 | 116.97791 | 9193 ft | 257 kts | 236° |
| 2026-05-04 05:42 | 25.80118 | 116.96242 | 9194 ft | 242 kts | 233° |
| 2026-05-04 05:42 | 25.79002 | 116.94895 | 9173 ft | 234 kts | 225° |
| 2026-05-04 05:42 | 25.77757 | 116.93742 | 9190 ft | 234 kts | 219° |
| 2026-05-04 05:42 | 25.76382 | 116.92770 | 9070 ft | 235 kts | 212° |
| 2026-05-04 05:43 | 25.74896 | 116.91996 | 8949 ft | 236 kts | 206° |
| 2026-05-04 05:43 | 25.73377 | 116.91299 | 8819 ft | 235 kts | 206° |
| 2026-05-04 05:43 | 25.71868 | 116.90607 | 8693 ft | 235 kts | 206° |
| 2026-05-04 05:45 | 25.61269 | 116.85730 | 8211 ft | 235 kts | 206° |
| 2026-05-04 05:45 | 25.59757 | 116.85038 | 8211 ft | 235 kts | 206° |
| 2026-05-04 05:47 | 25.49201 | 116.80201 | 8211 ft | 234 kts | 206° |
| 2026-05-04 05:47 | 25.47697 | 116.79514 | 8213 ft | 233 kts | 206° |
| 2026-05-04 05:47 | 25.46198 | 116.78828 | 8210 ft | 233 kts | 206° |
| 2026-05-04 05:48 | 25.44706 | 116.78142 | 8211 ft | 232 kts | 206° |
| 2026-05-04 05:48 | 25.43216 | 116.77456 | 8216 ft | 231 kts | 206° |
| 2026-05-04 05:48 | 25.41760 | 116.76791 | 8144 ft | 223 kts | 206° |
| 2026-05-04 05:48 | 25.40352 | 116.76149 | 8011 ft | 215 kts | 206° |
| 2026-05-04 05:49 | 25.39157 | 116.75247 | 7891 ft | 205 kts | 232° |
| 2026-05-04 05:49 | 25.38531 | 116.73867 | 7771 ft | 202 kts | 259° |
| 2026-05-04 05:49 | 25.38582 | 116.72327 | 7594 ft | 204 kts | 286° |
| 2026-05-04 05:49 | 25.39119 | 116.70866 | 7330 ft | 206 kts | 290° |
| 2026-05-04 05:51 | 25.45159 | 116.64358 | 5967 ft | 185 kts | 22° |
| 2026-05-04 05:51 | 25.46342 | 116.64899 | 5760 ft | 186 kts | 22° |
| 2026-05-04 05:52 | 25.47534 | 116.65443 | 5469 ft | 184 kts | 22° |
| 2026-05-04 05:52 | 25.48704 | 116.65974 | 5189 ft | 179 kts | 23° |
| 2026-05-04 05:52 | 25.49832 | 116.66487 | 4937 ft | 171 kts | 23° |
| 2026-05-04 05:52 | 25.50901 | 116.66975 | 4724 ft | 160 kts | 24° |
| 2026-05-04 05:53 | 25.51911 | 116.67437 | 4496 ft | 155 kts | 24° |
| 2026-05-04 05:54 | 25.58673 | 116.70528 | 3011 ft | 147 kts | 23° |
| 2026-05-04 05:55 | 25.59617 | 116.70958 | 2799 ft | 146 kts | 23° |
| 2026-05-04 05:55 | 25.60557 | 116.71390 | 2581 ft | 146 kts | 23° |
| 2026-05-04 05:55 | 25.61496 | 116.71823 | 2376 ft | 146 kts | 23° |
| 2026-05-04 05:55 | 25.62433 | 116.72257 | 2156 ft | 145 kts | 23° |
| 2026-05-04 05:56 | 25.63368 | 116.72687 | 1984 ft | 146 kts | 23° |
| 2026-05-04 05:56 | 25.64303 | 116.73114 | 1774 ft | 145 kts | 22° |
| 2026-05-04 05:56 | 25.65237 | 116.73535 | 1553 ft | 144 kts | 22° |
| 2026-05-04 05:56 | 25.66161 | 116.73957 | 1369 ft | 143 kts | 23° |
| 2026-05-04 05:57 | 25.67034 | 116.74359 | 1251 ft | 133 kts | 23° |
| 2026-05-04 05:57 | 25.67747 | 116.74684 | 1250 ft | 73 kts | 22° |
| 2026-05-04 05:57 | 25.68031 | 116.74815 | 1240 ft | 32 kts | 22° |
| 2026-05-04 05:57 | 25.68034 | 116.74817 | 1240 ft | 32 kts | 22° |
| 2026-05-04 05:58 | 25.68167 | 116.74876 | 1242 ft | 16 kts | 22° |
| 2026-05-04 05:58 | 25.68255 | 116.74917 | 1243 ft | 12 kts | 22° |
| 2026-05-04 05:58 | 25.68282 | 116.74974 | 1243 ft | 8 kts | 107° |
| 2026-05-04 05:58 | 25.68263 | 116.75026 | 1242 ft | 7 kts | 112° |
| 2026-05-04 05:59 | 25.68248 | 116.75067 | 1242 ft | 5 kts | 112° |
| 2026-05-04 05:59 | 25.68238 | 116.75095 | 1243 ft | 3 kts | 111° |
| 2026-05-04 05:59 | 25.68234 | 116.75107 | 1259 ft | 1 kts | 111° |
| 2026-05-04 05:59 | 25.68234 | 116.75108 | 1259 ft | 0 kts | 111° |
| 2026-05-04 06:00 | 25.68225 | 116.75133 | 1251 ft | 10 kts | 112° |
| 2026-05-04 06:00 | 25.68199 | 116.75196 | 1258 ft | 7 kts | 114° |
| 2026-05-04 06:00 | 25.68183 | 116.75237 | 1253 ft | 5 kts | 112° |
| 2026-05-04 06:00 | 25.68170 | 116.75273 | 1252 ft | 6 kts | 111° |
| 2026-05-04 06:01 | 25.68160 | 116.75305 | 1252 ft | 3 kts | 107° |
| 2026-05-04 06:01 | 25.68158 | 116.75332 | 1259 ft | 3 kts | 84° |